Latest Weather Observations for Melbourne (Olympic Park)

IDV60801

Issued at 10:31 pm EST Saturday 29 August 2015 (issued every 30 minutes, with the page automatically refreshed every 10 minutes)

About weather observations | Map of weather stations | Latest weather observations for VIC | Other Formats
Station Details ID: 086338 Name: MELBOURNE (OLYMPIC PARK) Lat: -37.83 Lon: 144.98 Height: 7.53 m
Data from the previous 72 hours. | See also: Recent months at Melbourne (Olympic Park)
Date/Time
EST
Temp
°C
App
Temp
°C
Dew
Point
Rel
Hum
%
Delta-T
°C
Wind Press
QNH
hPa
Press
MSL
hPa
Rain
since 9 am
mm
Dir
 
Spd
km/h
Gust
km/h
Spd
kts
Gust
kts
29/10:30pm 9.7 7.5 8.0 89 0.8 SSW 9 20 5 11 1025.9 1025.9 1.2
29/10:00pm 9.6 7.1 8.4 92 0.6 S 11 20 6 11 1026.0 1026.0 1.2
29/09:30pm 9.9 7.9 8.7 92 0.6 SW 9 15 5 8 1025.9 1025.9 1.0
29/09:00pm 9.6 6.0 8.4 92 0.6 SSW 17 26 9 14 1025.7 1025.7 1.0
29/08:30pm 9.7 7.9 9.4 98 0.1 SSW 9 19 5 10 1025.8 1025.8 1.0
29/08:00pm 9.4 7.0 8.8 96 0.3 SW 11 24 6 13 1025.9 1025.9 1.0
29/07:30pm 9.6 6.9 8.8 95 0.4 SSW 13 26 7 14 1025.8 1025.8 0.8
29/07:00pm 10.0 8.5 9.1 94 0.4 SW 7 13 4 7 1025.8 1025.8 0.4
29/06:30pm 9.8 6.6 8.6 92 0.6 SSW 15 28 8 15 1025.6 1025.6 0.4
29/06:00pm 9.8 8.2 8.7 93 0.5 SSW 7 13 4 7 1025.2 1025.2 0.2
29/05:30pm 10.0 6.9 8.8 92 0.6 SSW 15 24 8 13 1025.2 1025.2 0.0
29/05:00pm 10.5 8.0 8.3 86 1.1 SW 11 20 6 11 1025.1 1025.1 0.0
29/04:30pm 10.9 7.9 7.8 81 1.5 SSW 13 41 7 22 1025.1 1025.1 0.0
29/04:00pm 10.6 8.1 8.0 84 1.3 SW 11 22 6 12 1025.0 1025.0 0.0
29/03:30pm 10.2 6.6 8.3 88 0.9 SSW 17 32 9 17 1025.1 1025.1 0.0
29/03:00pm 10.9 8.0 8.0 82 1.4 SW 13 24 7 13 1025.1 1025.1 0.0
29/02:30pm 10.3 6.2 7.7 84 1.2 SSW 19 41 10 22 1025.2 1025.2 0.0
29/02:00pm 11.2 7.2 6.7 74 2.1 SSW 17 26 9 14 1025.1 1025.1 0.0
29/01:30pm 11.1 8.1 7.8 80 1.6 SW 13 24 7 13 1025.4 1025.4 0.0
29/01:00pm 11.0 8.5 6.7 75 2.0 SW 9 24 5 13 1025.9 1025.9 0.0
29/12:30pm 10.7 7.4 6.5 75 2.0 WSW 13 32 7 17 1026.2 1026.2 0.0
29/12:00pm 10.7 7.3 6.1 73 2.1 WSW 13 20 7 11 1026.5 1026.5 0.0
29/11:30am 10.1 7.4 5.5 73 2.1 SW 9 19 5 10 1026.8 1026.8 0.0
29/11:00am 9.5 6.2 4.7 72 2.1 WSW 11 20 6 11 1026.9 1026.9 0.0
29/10:30am 9.5 5.8 4.5 71 2.2 W 13 20 7 11 1026.8 1026.8 0.0
29/10:00am 9.1 5.8 4.3 72 2.1 W 11 17 6 9 1026.9 1026.9 0.0
29/09:30am 8.4 5.3 3.7 72 2.0 W 9 15 5 8 1027.2 1027.2 0.0
29/09:00am 8.5 5.3 3.1 69 2.3 W 9 17 5 9 1027.3 1027.3 1.8
29/08:30am 8.1 5.3 3.2 71 2.1 W 7 17 4 9 1027.0 1027.0 1.8
29/08:00am 7.7 4.5 3.0 72 2.0 W 9 19 5 10 1027.1 1027.1 1.8
29/07:30am 6.6 2.9 2.5 75 1.7 WNW 11 19 6 10 1026.9 1026.9 1.8
29/07:00am 6.8 3.4 2.1 72 1.9 W 9 17 5 9 1026.6 1026.6 1.8
29/06:30am 8.0 3.9 2.5 68 2.3 SW 13 26 7 14 1026.2 1026.2 1.8
29/06:00am 6.3 4.6 4.0 85 1.0 SE 2 7 1 4 1026.0 1026.0 1.8
29/05:30am 7.1 4.5 3.0 75 1.7 SSE 6 13 3 7 1026.1 1026.1 1.8
29/05:00am 7.4 4.1 2.3 70 2.1 SSE 9 17 5 9 1026.1 1026.1 1.8
29/04:30am 7.5 4.1 2.0 68 2.3 SSE 9 15 5 8 1026.0 1026.0 1.8
29/04:00am 7.0 4.1 4.5 84 1.1 SSE 9 13 5 7 1026.1 1026.1 1.8
29/03:30am 7.0 6.2 6.3 95 0.3 CALM 0 0 0 0 1025.9 1025.9 1.8
29/03:00am 7.1 6.2 6.2 94 0.4 CALM 0 0 0 0 1026.0 1026.0 1.8
29/02:30am 7.6 5.5 5.9 89 0.8 SSE 6 9 3 5 1026.3 1026.3 1.6
29/02:00am 7.6 4.5 5.6 87 0.9 SSW 11 20 6 11 1026.5 1026.5 1.6
29/01:30am 7.1 4.3 5.1 87 0.9 W 9 17 5 9 1026.5 1026.5 1.4
29/01:00am 7.6 4.9 3.8 77 1.6 W 7 13 4 7 1026.6 1026.6 0.0
29/12:30am 7.7 4.2 1.5 65 2.5 W 9 13 5 7 1026.5 1026.5 0.0
29/12:00am 7.4 4.5 1.5 66 2.4 W 6 11 3 6 1026.4 1026.4 0.0
 
Date/Time
EST
Temp
°C
App
Temp
°C
Dew
Point
Rel
Hum
%
Delta-T
°C
Wind Press
QNH
hPa
Press
MSL
hPa
Rain
since 9 am
mm
Dir
 
Spd
km/h
Gust
km/h
Spd
kts
Gust
kts
28/11:30pm 7.7 4.8 1.5 65 2.5 WNW 6 11 3 6 1026.3 1026.3 0.0
28/11:00pm 9.2 5.5 -0.1 52 3.7 SSW 9 13 5 7 1026.6 1026.6 0.0
28/10:30pm 9.2 5.6 0.6 55 3.5 SW 9 20 5 11 1026.8 1026.8 0.0
28/10:00pm 9.3 6.0 2.4 62 2.9 SW 9 19 5 10 1026.8 1026.8 0.0
28/09:30pm 9.5 5.8 2.6 62 2.9 SW 11 20 6 11 1026.8 1026.8 0.0
28/09:00pm 9.8 6.3 3.5 65 2.7 SSW 11 22 6 12 1026.6 1026.6 0.0
28/08:30pm 9.9 6.3 3.2 63 2.9 SSW 11 19 6 10 1026.4 1026.4 0.0
28/08:00pm 9.8 6.3 3.3 64 2.8 SSW 11 22 6 12 1026.2 1026.2 0.0
28/07:30pm 10.0 7.3 3.5 64 2.8 SSW 7 13 4 7 1026.1 1026.1 0.0
28/07:00pm 10.1 6.8 4.3 67 2.6 SW 11 20 6 11 1026.0 1026.0 0.0
28/06:30pm 10.0 7.0 4.2 67 2.6 SSW 9 15 5 8 1025.8 1025.8 0.0
28/06:00pm 10.3 7.3 4.0 65 2.8 SSW 9 19 5 10 1025.5 1025.5 0.0
28/05:30pm 10.5 6.8 4.2 65 2.8 SSW 13 24 7 13 1025.4 1025.4 0.0
28/05:00pm 10.5 6.0 4.2 65 2.8 SSW 17 30 9 16 1025.2 1025.2 0.0
28/04:30pm 10.7 6.4 5.3 69 2.5 SSW 17 30 9 16 1025.1 1025.1 0.0
28/04:00pm 11.4 6.8 5.7 68 2.6 SSW 19 35 10 19 1024.9 1024.9 0.0
28/03:30pm 11.5 6.4 5.8 68 2.6 SSW 22 37 12 20 1024.9 1024.9 0.0
28/03:00pm 11.9 7.9 6.6 70 2.5 SSW 17 33 9 18 1024.9 1024.9 0.0
28/02:30pm 12.4 8.3 7.9 74 2.2 SSW 19 30 10 16 1024.8 1024.8 0.0
28/02:00pm 12.3 8.8 8.8 79 1.7 SSW 17 26 9 14 1024.8 1024.8 0.0
28/01:30pm 12.1 9.5 7.6 74 2.2 SSW 11 20 6 11 1024.9 1024.9 0.0
28/01:00pm 13.0 10.4 7.9 71 2.5 S 11 17 6 9 1025.1 1025.1 0.0
28/12:30pm 11.9 8.5 7.8 76 2.0 SSW 15 28 8 15 1025.6 1025.6 0.0
28/12:00pm 12.3 9.4 8.0 75 2.1 SW 13 24 7 13 1025.8 1025.8 0.0
28/11:30am 12.1 9.6 8.4 78 1.8 SSW 11 19 6 10 1026.2 1026.2 0.0
28/11:00am 11.5 9.0 8.2 80 1.6 SW 11 17 6 9 1026.3 1026.3 0.0
28/10:30am 10.9 9.2 8.5 85 1.2 WSW 7 11 4 6 1026.3 1026.3 0.0
28/10:00am 10.5 8.1 8.6 88 0.9 SW 11 19 6 10 1026.2 1026.2 0.0
28/09:30am 10.2 8.5 8.5 89 0.8 SSW 7 15 4 8 1026.0 1026.0 0.0
28/09:00am 9.4 7.7 8.2 92 0.6 WSW 7 11 4 6 1026.0 1026.0 17.4
28/08:30am 9.0 6.9 8.1 94 0.4 W 9 17 5 9 1025.9 1025.9 17.4
28/08:00am 9.1 7.3 8.0 93 0.5 W 7 17 4 9 1025.6 1025.6 17.2
28/07:30am 8.9 7.1 8.0 94 0.4 WSW 7 17 4 9 1025.3 1025.3 17.2
28/07:00am 8.6 6.2 7.2 91 0.7 W 9 19 5 10 1025.1 1025.1 17.2
28/06:30am 8.5 6.5 7.0 90 0.7 WSW 7 13 4 7 1024.8 1024.8 17.2
28/06:00am 8.3 5.8 6.6 89 0.8 WSW 9 13 5 7 1024.5 1024.5 17.2
28/05:30am 8.5 6.4 6.8 89 0.8 WNW 7 13 4 7 1024.3 1024.3 17.2
28/05:00am 8.9 6.5 6.9 87 0.9 W 9 13 5 7 1024.1 1024.1 17.2
28/04:30am 9.3 7.0 7.3 87 0.9 W 9 13 5 7 1024.0 1024.0 17.2
28/04:00am 9.8 8.1 7.4 85 1.1 SW 6 11 3 6 1023.9 1023.9 17.2
28/03:30am 10.3 8.1 7.7 84 1.2 SSW 9 15 5 8 1023.9 1023.9 17.2
28/03:00am 10.4 7.7 7.5 82 1.4 SSW 11 17 6 9 1023.9 1023.9 17.2
28/02:30am 10.4 7.8 7.8 84 1.3 SSW 11 20 6 11 1024.1 1024.1 17.2
28/02:00am 10.4 8.1 7.6 83 1.3 SSW 9 15 5 8 1024.1 1024.1 17.2
28/01:30am 10.3 8.1 7.7 84 1.2 SSW 9 17 5 9 1024.1 1024.1 17.2
28/01:00am 10.4 7.9 8.0 85 1.2 SSW 11 20 6 11 1023.9 1023.9 17.2
28/12:30am 10.5 8.0 8.3 86 1.1 SSW 11 19 6 10 1023.8 1023.8 17.2
28/12:00am 10.6 8.6 8.7 88 0.9 SSW 9 17 5 9 1023.7 1023.7 17.2
 
Date/Time
EST
Temp
°C
App
Temp
°C
Dew
Point
Rel
Hum
%
Delta-T
°C
Wind Press
QNH
hPa
Press
MSL
hPa
Rain
since 9 am
mm
Dir
 
Spd
km/h
Gust
km/h
Spd
kts
Gust
kts
27/11:30pm 10.8 8.4 8.7 87 1.0 SSW 11 20 6 11 1023.7 1023.7 17.2
27/11:00pm 11.0 8.9 9.6 91 0.7 S 11 22 6 12 1023.5 1023.5 17.2
27/10:30pm 11.0 8.9 9.9 93 0.6 S 11 24 6 13 1023.2 1023.2 17.2
27/10:00pm 10.9 9.0 10.6 98 0.2 S 11 20 6 11 1023.1 1023.1 17.2
27/09:30pm 11.0 9.2 11.0 100 0.0 SSW 11 20 6 11 1022.9 1022.9 17.2
27/09:00pm 11.1 8.6 11.1 100 0.0 S 15 26 8 14 1022.7 1022.7 17.2
27/08:30pm 11.2 9.5 11.2 100 0.0 S 11 20 6 11 1022.4 1022.4 17.0
27/08:00pm 11.3 9.2 11.3 100 0.0 SSW 13 26 7 14 1022.2 1022.2 16.8
27/07:30pm 11.2 9.9 11.2 100 0.0 SSW 9 17 5 9 1021.8 1021.8 16.6
27/07:00pm 11.2 9.9 11.2 100 0.0 S 9 15 5 8 1021.5 1021.5 16.6
27/06:30pm 11.6 10.4 11.6 100 0.0 SSE 9 17 5 9 1021.2 1021.2 16.2
27/06:00pm 11.5 9.5 11.5 100 0.0 SSW 13 28 7 15 1020.8 1020.8 15.2
27/05:30pm 11.6 8.9 11.6 100 0.0 SSW 17 28 9 15 1020.4 1020.4 14.4
27/05:00pm 11.6 9.6 11.6 100 0.0 SSW 13 30 7 16 1020.2 1020.2 13.8
27/04:30pm 11.6 9.9 11.3 98 0.2 SW 11 19 6 10 1020.0 1020.0 13.8
27/04:00pm 11.5 10.6 11.3 99 0.1 SW 7 17 4 9 1019.7 1019.7 13.4
27/03:30pm 11.5 9.8 11.3 99 0.1 SW 11 19 6 10 1019.8 1019.8 13.0
27/03:00pm 11.4 10.1 11.4 100 0.0 SW 9 17 5 9 1019.8 1019.8 12.6
27/02:30pm 11.2 10.4 11.2 100 0.0 WSW 6 11 3 6 1019.9 1019.9 12.2
27/02:00pm 11.0 10.6 11.0 100 0.0 SW 4 9 2 5 1020.0 1020.0 11.4
27/01:30pm 10.8 10.3 10.8 100 0.0 SSW 4 9 2 5 1020.4 1020.4 9.6
27/01:00pm 10.7 9.8 10.5 99 0.1 SW 6 11 3 6 1020.6 1020.6 8.2
27/12:30pm 10.8 9.8 10.3 97 0.3 SW 6 9 3 5 1021.0 1021.0 5.0
27/12:00pm 10.7 10.4 10.2 97 0.3 WSW 2 7 1 4 1021.1 1021.1 3.4
27/11:30am 10.7 10.4 10.1 96 0.3 SW 2 7 1 4 1021.4 1021.4 2.2
27/11:00am 10.6 10.6 9.8 95 0.4 CALM 0 0 0 0 1021.4 1021.4 1.4
27/10:30am 10.4 9.6 9.5 94 0.4 W 4 11 2 6 1021.5 1021.5 0.8
27/10:00am 10.1 9.6 9.2 94 0.4 WSW 2 9 1 5 1021.5 1021.5 0.6
27/09:30am 10.3 9.7 8.9 91 0.7 WSW 2 7 1 4 1021.8 1021.8 0.4
27/09:00am 10.2 9.1 8.6 90 0.8 WSW 4 11 2 6 1022.0 1022.0 0.8
27/08:30am 10.1 8.7 9.0 93 0.5 SSW 6 9 3 5 1021.8 1021.8 0.8
27/08:00am 10.0 9.8 9.1 94 0.4 CALM 0 6 0 3 1021.6 1021.6 0.8
27/07:30am 10.0 9.8 8.9 93 0.5 CALM 0 0 0 0 1021.3 1021.3 0.6
27/07:00am 10.2 8.5 8.3 88 0.9 W 7 11 4 6 1021.3 1021.3 0.4
27/06:30am 10.7 9.9 8.3 85 1.2 SW 2 9 1 5 1021.0 1021.0 0.0
27/06:00am 10.6 10.4 8.9 89 0.8 CALM 0 0 0 0 1020.5 1020.5 0.0
27/05:30am 10.6 10.4 9.0 90 0.8 CALM 0 0 0 0 1020.5 1020.5 0.0
27/05:00am 10.5 10.2 8.8 89 0.8 CALM 0 0 0 0 1020.4 1020.4 0.0
27/04:30am 10.6 10.4 9.0 90 0.8 CALM 0 0 0 0 1020.4 1020.4 0.0
27/04:00am 10.5 10.3 8.9 90 0.8 CALM 0 0 0 0 1020.6 1020.6 0.0
27/03:30am 10.7 10.4 8.6 87 1.0 CALM 0 0 0 0 1020.7 1020.7 0.0
27/03:00am 10.7 10.4 8.5 86 1.1 CALM 0 0 0 0 1021.0 1021.0 0.0
27/02:30am 10.7 10.4 8.5 86 1.1 CALM 0 7 0 4 1021.1 1021.1 0.0
27/02:00am 10.5 10.0 7.9 84 1.3 CALM 0 0 0 0 1021.5 1021.5 0.0
27/01:30am 10.7 9.8 7.9 83 1.4 S 2 6 1 3 1021.8 1021.8 0.0
27/01:00am 10.9 10.4 7.8 81 1.5 CALM 0 0 0 0 1022.0 1022.0 0.0
27/12:30am 11.0 10.5 7.7 80 1.6 CALM 0 0 0 0 1022.3 1022.3 0.0
27/12:00am 11.1 10.6 8.0 81 1.5 CALM 0 0 0 0 1022.3 1022.3 0.0
 
Date/Time
EST
Temp
°C
App
Temp
°C
Dew
Point
Rel
Hum
%
Delta-T
°C
Wind Press
QNH
hPa
Press
MSL
hPa
Rain
since 9 am
mm
Dir
 
Spd
km/h
Gust
km/h
Spd
kts
Gust
kts
26/11:30pm 11.4 10.1 7.7 78 1.8 SW 4 9 2 5 1022.5 1022.5 0.0
26/11:00pm 11.7 11.1 7.4 75 2.1 CALM 0 7 0 4 1022.8 1022.8 0.0

Other Formats:

Comma delimited format used in spreadsheet applications
http://www.bom.gov.au/fwo/IDV60801/IDV60801.95936.axf

JavaScript Object Notation format (JSON) in row-major order
http://www.bom.gov.au/fwo/IDV60801/IDV60801.95936.json